Time;durP1;ratioP1;P1;durP2;ratioP2;P2;SDS_P1;SDS_P2;PMS_P1;PMS_P2;Temp;Humidity;BMP_temperature;BMP_pressure;BME280_temperature;BME280_humidity;BME280_pressure;Samples;Min_cycle;Max_cycle;Signal;HPM_P1;HPM_P2
2021/04/26 00:01:04;;;;;;;2.37;1.50;;;;;;;-1.68;100.00;101580.16;4982725;28;20461;-77
2021/04/26 00:03:30;;;;;;;2.23;1.53;;;;;;;-1.86;100.00;101564.97;4981869;28;20213;-77
2021/04/26 00:05:56;;;;;;;3.73;1.97;;;;;;;-1.91;99.98;101568.19;4985134;28;20480;-77
2021/04/26 00:08:22;;;;;;;3.33;2.00;;;;;;;-1.94;100.00;101564.66;4982816;28;20814;-77
2021/04/26 00:10:48;;;;;;;1.90;1.60;;;;;;;-2.16;98.38;101565.50;4981571;28;20541;-77
2021/04/26 00:13:15;;;;;;;2.93;1.57;;;;;;;-1.98;100.00;101563.66;4977315;28;20479;-77
2021/04/26 00:15:41;;;;;;;2.67;1.43;;;;;;;-1.92;100.00;101561.38;4977755;28;20541;-77
2021/04/26 00:18:07;;;;;;;2.40;1.50;;;;;;;-1.71;100.00;101560.44;4981612;28;20814;-77
2021/04/26 00:20:34;;;;;;;3.67;1.77;;;;;;;-1.75;100.00;101558.59;4980412;28;20998;-77
2021/04/26 00:23:01;;;;;;;2.57;1.60;;;;;;;-2.14;100.00;101567.28;4978633;28;20473;-77
2021/04/26 00:25:28;;;;;;;2.23;1.50;;;;;;;-2.21;100.00;101562.75;4985135;28;20469;-77
2021/04/26 00:27:54;;;;;;;3.07;1.77;;;;;;;-2.24;100.00;101554.94;4981345;28;20461;-77
2021/04/26 00:30:23;;;;;;;2.80;1.70;;;;;;;-2.06;100.00;101547.13;4985708;28;20475;-77
2021/04/26 00:32:50;;;;;;;4.10;1.70;;;;;;;-2.12;100.00;101544.34;4979218;28;20477;-77
2021/04/26 00:35:17;;;;;;;3.43;1.90;;;;;;;-1.96;100.00;101549.25;4972265;28;20457;-77
2021/04/26 00:37:44;;;;;;;2.73;1.90;;;;;;;-2.02;100.00;101541.34;4978605;28;20475;-77
2021/04/26 00:40:12;;;;;;;2.23;1.80;;;;;;;-2.08;100.00;101541.09;4972394;28;21140;-77
2021/04/26 00:42:38;;;;;;;2.97;1.83;;;;;;;-2.21;100.00;101532.06;4975709;28;20450;-77
2021/04/26 00:45:08;;;;;;;3.10;1.63;;;;;;;-2.23;100.00;101537.91;4984589;28;20490;-77
2021/04/26 00:47:35;;;;;;;2.60;1.67;;;;;;;-2.27;100.00;101524.16;4978305;28;20464;-77
2021/04/26 00:50:02;;;;;;;2.40;1.60;;;;;;;-2.24;100.00;101523.41;4985576;28;20452;-77
2021/04/26 00:52:28;;;;;;;4.73;1.60;;;;;;;-2.30;100.00;101527.47;4980969;28;21353;-77
2021/04/26 00:54:54;;;;;;;3.17;1.70;;;;;;;-2.52;100.00;101520.59;4979797;28;20553;-77
2021/04/26 00:57:20;;;;;;;1.80;1.63;;;;;;;-2.36;100.00;101524.63;4985805;28;20535;-77
2021/04/26 00:59:46;;;;;;;2.33;1.80;;;;;;;-2.28;100.00;101524.97;4979755;28;20275;-77
2021/04/26 01:02:12;;;;;;;5.50;1.97;;;;;;;-2.27;100.00;101521.59;4970832;28;20544;-76
2021/04/26 01:04:39;;;;;;;2.40;1.43;;;;;;;-2.21;100.00;101521.84;4969520;28;20579;-77
2021/04/26 01:07:06;;;;;;;3.57;1.93;;;;;;;-2.54;100.00;101522.22;4971540;28;21597;-77
2021/04/26 01:09:37;;;;;;;4.87;2.43;;;;;;;-2.33;100.00;101516.25;4972942;28;20475;-77
2021/04/26 01:12:12;;;;;;;2.50;1.97;;;;;;;-2.46;100.00;101509.78;4980227;28;20464;-77
2021/04/26 01:14:42;;;;;;;3.57;2.10;;;;;;;-2.36;100.00;101509.31;4973689;28;20477;-77
2021/04/26 01:17:12;;;;;;;8.23;2.60;;;;;;;-2.19;100.00;101502.34;4977679;28;20474;-77
2021/04/26 01:20:04;;;;;;;2.97;1.83;;;;;;;-2.40;100.00;101498.94;4975806;28;20461;-77
2021/04/26 01:22:55;;;;;;;2.57;1.73;;;;;;;-2.51;100.00;101507.03;4977866;28;20612;-77
2021/04/26 01:25:22;;;;;;;2.37;1.77;;;;;;;-2.54;100.00;101499.22;4975446;28;20580;-77
2021/04/26 01:28:02;;;;;;;3.43;2.10;;;;;;;-2.43;100.00;101502.22;4982579;28;20444;-77
2021/04/26 01:30:33;;;;;;;3.23;2.03;;;;;;;-2.63;100.00;101505.66;4983151;28;21099;-77
2021/04/26 01:33:16;;;;;;;2.63;1.80;;;;;;;-2.84;100.00;101509.03;4984034;28;20497;-77
2021/04/26 01:35:47;;;;;;;3.10;1.77;;;;;;;-2.62;100.00;101499.72;4998192;28;20449;-77
2021/04/26 01:38:18;;;;;;;3.70;2.27;;;;;;;-2.67;100.00;101504.66;4980638;28;20453;-77
2021/04/26 01:40:47;;;;;;;5.60;2.20;;;;;;;-2.65;100.00;101504.72;4974990;28;20833;-77
2021/04/26 01:43:16;;;;;;;1.80;1.50;;;;;;;-2.74;100.00;101497.53;4982269;28;20561;-77
2021/04/26 01:45:45;;;;;;;3.27;1.90;;;;;;;-3.05;100.00;101507.28;4973155;28;20961;-77
2021/04/26 01:48:15;;;;;;;4.00;1.90;;;;;;;-2.96;100.00;101513.63;4986941;28;20492;-77
2021/04/26 01:50:44;;;;;;;2.63;1.80;;;;;;;-2.90;100.00;101509.66;4980016;28;20456;-77
2021/04/26 01:53:11;;;;;;;2.10;1.60;;;;;;;-3.11;100.00;101511.28;4983110;28;20955;-77
2021/04/26 01:55:39;;;;;;;3.17;2.10;;;;;;;-3.13;100.00;101520.53;4981022;28;20920;-77
2021/04/26 01:58:07;;;;;;;1.87;1.53;;;;;;;-2.84;100.00;101503.06;4982275;28;20453;-77
2021/04/26 02:00:37;;;;;;;2.80;2.00;;;;;;;-2.86;100.00;101508.97;4984074;28;20941;-77
2021/04/26 02:03:14;;;;;;;4.20;2.00;;;;;;;-2.87;100.00;101512.34;4985090;28;20487;-77
2021/04/26 02:06:17;;;;;;;2.70;1.50;;;;;;;-2.73;100.00;101506.94;4934920;29;20478;-77
2021/04/26 02:09:02;;;;;;;2.53;1.60;;;;;;;-2.75;100.00;101506.84;4973645;28;20466;-77
2021/04/26 02:11:30;;;;;;;2.03;1.83;;;;;;;-2.60;100.00;101510.84;4968505;28;20937;-77
2021/04/26 02:13:57;;;;;;;1.50;1.33;;;;;;;-2.68;100.00;101508.84;4983221;28;20472;-77
2021/04/26 02:16:23;;;;;;;2.03;1.60;;;;;;;-2.72;100.00;101514.66;4982349;28;20558;-77
2021/04/26 02:18:50;;;;;;;2.33;1.43;;;;;;;-2.90;100.00;101507.09;4980325;28;20972;-77
2021/04/26 02:21:17;;;;;;;3.23;1.60;;;;;;;-2.89;100.00;101510.50;4977747;28;20444;-77
2021/04/26 02:23:43;;;;;;;3.00;1.43;;;;;;;-2.86;100.00;101506.41;4983617;28;20507;-77
2021/04/26 02:26:09;;;;;;;2.30;1.50;;;;;;;-3.04;100.00;101503.09;4984561;28;20574;-77
2021/04/26 02:28:42;;;;;;;1.53;1.20;;;;;;;-3.07;100.00;101501.25;4974954;28;20445;-77
2021/04/26 02:31:16;;;;;;;2.80;1.67;;;;;;;-2.91;100.00;101501.94;4976496;28;20491;-77
2021/04/26 02:33:48;;;;;;;1.20;1.10;;;;;;;-3.05;100.00;101504.75;4982516;28;20963;-77
2021/04/26 02:36:23;;;;;;;1.13;1.03;;;;;;;-3.26;100.00;101498.72;4982718;28;20872;-77
2021/04/26 02:38:53;;;;;;;2.10;1.23;;;;;;;-3.30;100.00;101505.34;4979231;28;20445;-77
2021/04/26 02:41:28;;;;;;;3.60;1.40;;;;;;;-3.35;100.00;101508.50;4976745;28;21093;-77
2021/04/26 02:44:01;;;;;;;1.67;1.30;;;;;;;-2.87;100.00;101499.59;4982581;28;20876;-77
2021/04/26 02:46:31;;;;;;;1.77;1.30;;;;;;;-2.84;100.00;101496.28;4983545;28;20550;-77
2021/04/26 02:48:58;;;;;;;1.53;1.23;;;;;;;-3.07;100.00;101495.28;4980397;28;20460;-77
2021/04/26 02:51:30;;;;;;;1.30;1.20;;;;;;;-2.87;100.00;101491.03;4983000;28;20502;-77
2021/04/26 02:53:57;;;;;;;2.23;1.37;;;;;;;-2.81;100.00;101491.31;4985675;28;20480;-77
2021/04/26 02:56:24;;;;;;;1.93;1.63;;;;;;;-3.13;100.00;101487.34;4987382;28;20440;-77
2021/04/26 02:58:55;;;;;;;2.07;1.30;;;;;;;-3.34;100.00;101498.38;4987514;28;20465;-77
2021/04/26 03:01:31;;;;;;;1.43;1.33;;;;;;;-3.03;100.00;101498.84;4987738;28;20484;-77
2021/04/26 03:04:20;;;;;;;1.30;1.20;;;;;;;-3.01;100.00;101495.53;4986467;28;20483;-77
2021/04/26 03:06:50;;;;;;;3.77;2.00;;;;;;;-3.32;100.00;101493.34;4982580;28;20481;-77
2021/04/26 03:09:25;;;;;;;2.60;1.70;;;;;;;-3.55;100.00;101487.19;4983476;28;20472;-77
2021/04/26 03:11:58;;;;;;;2.73;1.63;;;;;;;-3.57;100.00;101496.47;5002263;28;20456;-77
2021/04/26 03:14:29;;;;;;;3.40;1.90;;;;;;;-3.25;100.00;101485.16;4980727;28;20476;-77
2021/04/26 03:16:56;;;;;;;1.67;1.57;;;;;;;-3.16;100.00;101482.16;4980062;28;20452;-77
2021/04/26 03:19:24;;;;;;;2.10;1.47;;;;;;;-3.35;100.00;101491.53;4982950;28;20825;-77
2021/04/26 03:21:54;;;;;;;3.17;1.80;;;;;;;-3.63;100.00;101492.84;4982896;28;20455;-77
2021/04/26 03:24:21;;;;;;;2.27;1.90;;;;;;;-3.42;100.00;101481.84;4986825;28;20559;-77
2021/04/26 03:26:51;;;;;;;2.87;1.70;;;;;;;-3.52;100.00;101489.91;4979864;28;20479;-77
2021/04/26 03:29:20;;;;;;;3.00;2.03;;;;;;;-3.35;100.00;101483.00;4990587;28;20453;-77
2021/04/26 03:31:47;;;;;;;3.07;1.70;;;;;;;-3.56;100.00;101486.34;4982233;28;20457;-77
2021/04/26 03:34:18;;;;;;;2.57;1.40;;;;;;;-3.31;100.00;101473.00;4990470;28;20492;-77
2021/04/26 03:36:45;;;;;;;1.77;1.53;;;;;;;-3.46;100.00;101487.63;4980917;28;20460;-77
2021/04/26 03:39:14;;;;;;;2.60;1.60;;;;;;;-3.59;100.00;101481.09;4985655;28;20895;-77
2021/04/26 03:41:41;;;;;;;1.90;1.73;;;;;;;-3.66;100.00;101474.88;4980543;28;20964;-77
2021/04/26 03:44:13;;;;;;;1.67;1.57;;;;;;;-3.44;100.00;101483.47;4967069;28;20512;-77
2021/04/26 03:47:02;;;;;;;2.03;1.27;;;;;;;-3.35;100.00;101471.13;4981846;28;20528;-77
2021/04/26 03:49:47;;;;;;;2.93;1.30;;;;;;;-3.50;100.00;101478.97;4984783;28;20465;-76
2021/04/26 03:52:37;;;;;;;2.07;1.50;;;;;;;-3.55;100.00;101474.44;4969213;28;20548;-77
2021/04/26 03:55:27;;;;;;;2.60;1.63;;;;;;;-3.80;100.00;101473.34;4973902;28;20460;-77
2021/04/26 03:57:57;;;;;;;1.57;1.43;;;;;;;-3.50;100.00;101472.97;4986318;28;20464;-77
2021/04/26 04:00:24;;;;;;;2.20;1.53;;;;;;;-3.27;100.00;101464.69;4989578;28;20464;-77
2021/04/26 04:02:59;;;;;;;2.50;1.73;;;;;;;-3.49;100.00;101478.16;4978696;28;20991;-77
2021/04/26 04:05:27;;;;;;;4.20;1.90;;;;;;;-3.42;100.00;101471.66;4980115;28;20565;-77
2021/04/26 04:08:31;;;;;;;1.73;1.23;;;;;;;-3.28;100.00;101474.81;4983139;28;20467;-77
2021/04/26 04:11:20;;;;;;;1.90;1.50;;;;;;;-3.32;100.00;101478.91;4978606;28;20487;-77
2021/04/26 04:14:05;;;;;;;2.53;2.00;;;;;;;-3.30;100.00;101474.75;4981055;28;20483;-77
2021/04/26 04:16:33;;;;;;;2.57;1.90;;;;;;;-3.23;100.00;101470.78;4984774;28;20691;-77
2021/04/26 04:19:00;;;;;;;2.60;1.87;;;;;;;-3.35;100.00;101472.81;4985991;28;20859;-76
2021/04/26 04:21:30;;;;;;;2.13;1.53;;;;;;;-3.50;100.00;101475.53;4982047;28;20894;-77
2021/04/26 04:23:56;;;;;;;4.97;1.70;;;;;;;-3.23;100.00;101468.25;5001330;28;20479;-77
2021/04/26 04:26:23;;;;;;;2.93;1.70;;;;;;;-3.16;100.00;101459.19;4983335;28;21071;-77
2021/04/26 04:29:00;;;;;;;2.27;1.40;;;;;;;-3.09;100.00;101468.84;4976012;28;20493;-77
2021/04/26 04:31:42;;;;;;;3.10;1.70;;;;;;;-2.75;100.00;101457.50;4980616;28;20468;-77
2021/04/26 04:34:20;;;;;;;2.10;1.40;;;;;;;-2.77;100.00;101464.22;4979889;28;20975;-77
2021/04/26 04:37:05;;;;;;;2.23;1.33;;;;;;;-2.54;100.00;101455.81;4981368;28;20466;-77
2021/04/26 04:39:50;;;;;;;2.33;1.57;;;;;;;-2.51;100.00;101463.59;4984567;28;20453;-77
2021/04/26 04:42:37;;;;;;;1.97;1.47;;;;;;;-2.56;100.00;101464.22;4973353;28;20471;-77
2021/04/26 04:45:04;;;;;;;2.00;1.57;;;;;;;-2.28;100.00;101463.66;4981378;28;20824;-77
2021/04/26 04:47:40;;;;;;;1.37;1.27;;;;;;;-2.16;100.00;101466.69;4979869;28;20464;-77
2021/04/26 04:50:07;;;;;;;3.03;1.97;;;;;;;-2.07;100.00;101470.44;4973763;28;20474;-77
2021/04/26 04:52:34;;;;;;;2.70;1.60;;;;;;;-1.84;100.00;101468.75;4981157;28;20452;-77
2021/04/26 04:55:00;;;;;;;3.30;1.90;;;;;;;-1.72;100.00;101467.53;4983795;28;20462;-77
2021/04/26 04:57:27;;;;;;;2.80;1.70;;;;;;;-1.63;100.00;101474.66;4971326;28;20855;-76
2021/04/26 04:59:54;;;;;;;2.40;2.00;;;;;;;-1.68;100.00;101470.19;4975288;28;20466;-77
2021/04/26 05:02:55;;;;;;;2.40;1.43;;;;;;;-1.58;100.00;101465.47;4976809;28;20476;-77
2021/04/26 05:05:39;;;;;;;1.87;1.53;;;;;;;-1.43;100.00;101469.41;4973439;28;20497;-77
2021/04/26 05:08:31;;;;;;;3.23;1.60;;;;;;;-1.52;100.00;101475.91;4970003;28;20477;-77
2021/04/26 05:11:36;;;;;;;2.27;1.83;;;;;;;-1.27;100.00;101460.59;4954088;28;21006;-77
2021/04/26 05:14:23;;;;;;;2.37;1.73;;;;;;;-1.22;100.00;101472.72;4958936;28;20482;-77
2021/04/26 05:16:50;;;;;;;3.87;1.80;;;;;;;-1.40;100.00;101472.94;4964738;28;20456;-77
2021/04/26 05:19:16;;;;;;;2.07;1.60;;;;;;;-1.29;100.00;101472.47;4968506;28;20818;-77
2021/04/26 05:21:42;;;;;;;1.97;1.57;;;;;;;-1.18;100.00;101466.03;4970755;28;20974;-77
2021/04/26 05:24:10;;;;;;;1.73;1.50;;;;;;;-1.08;100.00;101470.66;4982947;28;20505;-77
2021/04/26 05:26:36;;;;;;;3.13;2.17;;;;;;;-1.09;98.79;101471.50;4969540;28;20481;-77
2021/04/26 05:29:03;;;;;;;7.17;2.20;;;;;;;-0.99;98.84;101468.41;4967681;28;20459;-77
2021/04/26 05:31:29;;;;;;;3.53;2.30;;;;;;;-0.89;98.68;101461.06;4977639;28;21052;-77
2021/04/26 05:33:56;;;;;;;3.00;2.03;;;;;;;-0.68;100.00;101459.22;4977090;28;20613;-77
2021/04/26 05:36:33;;;;;;;3.53;1.90;;;;;;;-0.57;99.22;101464.69;4973847;28;20535;-77
2021/04/26 05:39:02;;;;;;;4.93;2.13;;;;;;;-0.54;96.40;101472.50;4971336;28;20525;-77
2021/04/26 05:41:28;;;;;;;3.73;1.90;;;;;;;-0.54;91.91;101480.16;4966759;28;20499;-77
2021/04/26 05:43:55;;;;;;;2.73;1.90;;;;;;;-0.45;92.69;101477.03;4968002;28;20569;-77
2021/04/26 05:46:23;;;;;;;4.97;2.03;;;;;;;-0.29;92.51;101475.84;4974151;28;20934;-77
2021/04/26 05:48:50;;;;;;;4.30;2.13;;;;;;;-0.23;91.90;101474.34;4971349;28;21056;-77
2021/04/26 05:51:17;;;;;;;2.93;1.80;;;;;;;-0.15;91.08;101472.00;4965205;28;20521;-79
2021/04/26 05:53:43;;;;;;;2.83;1.50;;;;;;;-0.14;86.74;101481.47;4966886;28;20556;-77
2021/04/26 05:56:09;;;;;;;2.67;1.63;;;;;;;-0.03;84.61;101489.47;4966359;28;20448;-77
2021/04/26 05:58:35;;;;;;;3.20;1.87;;;;;;;0.13;84.91;101476.28;4966887;28;20464;-77
2021/04/26 06:01:01;;;;;;;3.60;1.70;;;;;;;0.37;88.14;101470.16;4966645;28;20503;-76
2021/04/26 06:03:27;;;;;;;1.67;1.50;;;;;;;0.45;83.49;101480.63;4971569;28;20232;-77
2021/04/26 06:05:54;;;;;;;3.20;1.70;;;;;;;0.53;84.15;101480.03;4966427;28;20485;-77
2021/04/26 06:08:20;;;;;;;3.10;2.00;;;;;;;0.63;80.58;101488.84;4974349;28;20206;-77
2021/04/26 06:10:46;;;;;;;3.03;1.43;;;;;;;0.77;78.63;101486.66;4967876;28;20238;-77
2021/04/26 06:13:13;;;;;;;1.53;1.43;;;;;;;0.91;76.69;101490.47;4968058;28;20217;-77
2021/04/26 06:15:39;;;;;;;1.23;1.13;;;;;;;1.02;75.64;101492.47;4966321;28;20204;-77
2021/04/26 06:18:09;;;;;;;2.80;1.50;;;;;;;1.18;73.88;101497.22;4966069;28;20992;-77
2021/04/26 06:20:35;;;;;;;2.23;1.20;;;;;;;1.33;73.52;101494.16;4972054;28;20202;-77
2021/04/26 06:23:01;;;;;;;1.70;1.03;;;;;;;1.51;72.50;101491.16;4972400;28;20225;-77
2021/04/26 06:25:28;;;;;;;1.33;1.10;;;;;;;1.67;74.14;101487.28;4970378;28;20686;-77
2021/04/26 06:27:54;;;;;;;1.30;1.13;;;;;;;1.81;72.30;101490.19;4969619;28;20206;-77
2021/04/26 06:30:21;;;;;;;3.03;1.37;;;;;;;1.94;73.82;101481.06;4973591;28;20212;-77
2021/04/26 06:32:47;;;;;;;2.47;1.37;;;;;;;2.02;74.45;101484.66;4969000;28;20899;-77
2021/04/26 06:35:13;;;;;;;2.20;1.20;;;;;;;2.13;74.04;101477.19;4971386;28;20216;-77
2021/04/26 06:37:39;;;;;;;2.07;1.30;;;;;;;2.32;69.88;101484.47;4975563;28;20213;-77
2021/04/26 06:40:06;;;;;;;1.43;1.30;;;;;;;2.52;66.82;101490.06;4975136;28;20206;-77
2021/04/26 06:42:33;;;;;;;1.97;1.13;;;;;;;2.70;67.46;101483.53;4974336;28;20235;-77
2021/04/26 06:44:59;;;;;;;1.33;1.07;;;;;;;2.80;62.63;101490.63;4961447;28;20206;-77
2021/04/26 06:47:25;;;;;;;2.67;1.23;;;;;;;2.87;65.53;101483.84;4964455;28;20214;-79
2021/04/26 06:49:51;;;;;;;1.97;1.07;;;;;;;3.02;61.52;101489.31;4965405;28;20884;-77
2021/04/26 06:52:17;;;;;;;1.37;1.07;;;;;;;3.16;61.69;101484.41;4963956;28;20229;-77
2021/04/26 06:54:43;;;;;;;1.67;1.00;;;;;;;3.27;64.85;101477.72;4963860;28;20226;-77
2021/04/26 06:57:09;;;;;;;5.80;1.00;;;;;;;3.24;60.07;101480.25;4967225;28;20194;-77
2021/04/26 06:59:35;;;;;;;4.30;0.90;;;;;;;3.32;59.14;101480.38;4965601;28;20647;-77
2021/04/26 07:02:01;;;;;;;2.00;0.70;;;;;;;3.40;59.42;101473.66;4964587;28;20620;-77
2021/04/26 07:04:27;;;;;;;2.70;0.90;;;;;;;3.51;60.82;101471.25;4962991;28;20226;-77
2021/04/26 07:06:53;;;;;;;1.00;0.80;;;;;;;3.64;59.33;101472.31;4964680;28;20302;-77
2021/04/26 07:09:19;;;;;;;0.67;0.60;;;;;;;3.76;58.90;101473.41;4965974;28;20212;-77
2021/04/26 07:11:45;;;;;;;1.00;0.70;;;;;;;3.95;59.03;101461.63;4964117;28;20774;-77
2021/04/26 07:14:11;;;;;;;0.70;0.70;;;;;;;4.09;56.62;101466.13;4966363;28;21741;-77
2021/04/26 07:16:38;;;;;;;1.53;0.77;;;;;;;4.13;56.52;101471.34;4964774;28;20235;-77
2021/04/26 07:19:04;;;;;;;0.90;0.50;;;;;;;4.16;58.82;101460.19;4964168;28;20201;-78
2021/04/26 07:21:30;;;;;;;1.53;0.80;;;;;;;4.29;59.57;101458.63;4961841;28;20606;-77
2021/04/26 07:23:56;;;;;;;0.60;0.53;;;;;;;4.38;59.21;101452.72;4964245;28;20571;-78
2021/04/26 07:26:22;;;;;;;2.63;0.70;;;;;;;4.37;56.73;101462.19;4965786;28;20217;-78
2021/04/26 07:28:48;;;;;;;1.57;0.77;;;;;;;4.46;54.66;101462.28;4963355;28;20245;-77
2021/04/26 07:31:14;;;;;;;1.03;0.70;;;;;;;4.58;54.89;101463.31;4961387;28;20685;-77
2021/04/26 07:33:41;;;;;;;1.27;0.80;;;;;;;4.61;54.56;101461.63;4962068;28;20233;-77
2021/04/26 07:36:08;;;;;;;0.67;0.53;;;;;;;4.84;57.38;101453.28;4964619;28;20335;-77
2021/04/26 07:38:34;;;;;;;0.73;0.60;;;;;;;4.89;55.84;101457.63;4963244;28;20321;-78
2021/04/26 07:41:00;;;;;;;2.43;0.70;;;;;;;4.75;55.99;101456.63;4964391;28;20202;-77
2021/04/26 07:43:27;;;;;;;0.83;0.70;;;;;;;4.81;56.02;101455.81;4973269;28;20652;-77
2021/04/26 07:45:52;;;;;;;0.70;0.70;;;;;;;5.13;56.46;101449.25;4978245;28;20611;-77
2021/04/26 07:48:19;;;;;;;1.07;0.77;;;;;;;5.12;55.88;101451.84;4978633;28;20198;-77
2021/04/26 07:50:46;;;;;;;1.07;0.73;;;;;;;5.03;53.23;101459.47;4976276;28;20290;-77
2021/04/26 07:53:13;;;;;;;1.50;0.70;;;;;;;5.26;55.64;101454.56;4980435;28;20244;-77
2021/04/26 07:55:39;;;;;;;0.80;0.60;;;;;;;5.25;51.62;101461.41;4980790;28;20194;-77
2021/04/26 07:58:05;;;;;;;0.80;0.80;;;;;;;5.28;51.05;101463.19;4976293;28;20225;-77
2021/04/26 08:00:31;;;;;;;2.70;1.00;;;;;;;5.43;52.25;101460.72;4984518;28;20982;-77
2021/04/26 08:02:57;;;;;;;0.87;0.60;;;;;;;5.61;54.23;101457.44;4977439;28;20299;-77
2021/04/26 08:05:24;;;;;;;1.77;0.60;;;;;;;5.39;52.43;101461.53;4975773;28;20290;-78
2021/04/26 08:07:51;;;;;;;2.23;0.70;;;;;;;5.36;53.60;101452.91;4974028;28;20202;-77
2021/04/26 08:10:17;;;;;;;2.07;0.70;;;;;;;5.47;51.94;101453.84;4978054;28;20210;-77
2021/04/26 08:12:43;;;;;;;1.73;0.50;;;;;;;5.38;50.53;101459.84;4975739;28;20297;-77
2021/04/26 08:15:11;;;;;;;2.30;0.80;;;;;;;5.31;53.24;101445.97;4976048;28;20211;-77
2021/04/26 08:17:37;;;;;;;2.43;0.70;;;;;;;5.46;53.04;101452.13;4979346;28;20328;-77
2021/04/26 08:20:05;;;;;;;3.63;1.60;;;;;;;5.83;51.39;101452.41;4976825;28;20907;-77
2021/04/26 08:22:31;;;;;;;2.13;0.70;;;;;;;6.05;51.11;101456.00;4974658;28;20209;-77
2021/04/26 08:24:58;;;;;;;1.20;0.80;;;;;;;6.07;47.34;101468.13;4975776;28;20268;-77
2021/04/26 08:27:24;;;;;;;1.83;0.60;;;;;;;6.12;46.30;101469.84;4978233;28;20225;-77
2021/04/26 08:29:50;;;;;;;1.40;0.80;;;;;;;6.00;48.53;101465.50;4979329;28;20216;-78
2021/04/26 08:32:17;;;;;;;3.17;0.60;;;;;;;5.67;48.82;101462.63;4979221;28;20209;-77
2021/04/26 08:34:43;;;;;;;2.53;0.90;;;;;;;5.43;50.41;101458.13;4976086;28;20628;-77
2021/04/26 08:37:09;;;;;;;2.10;0.67;;;;;;;5.48;49.20;101468.53;4979439;28;20268;-76
2021/04/26 08:39:35;;;;;;;2.07;0.77;;;;;;;5.78;46.74;101479.97;4981872;28;20224;-77
2021/04/26 08:42:01;;;;;;;0.57;0.50;;;;;;;5.87;45.50;101486.09;4975438;28;20223;-76
2021/04/26 08:44:27;;;;;;;1.33;0.60;;;;;;;6.10;44.25;101476.75;4998571;28;20236;-76
2021/04/26 08:46:56;;;;;;;1.00;0.80;;;;;;;6.22;43.92;101475.09;4974238;28;20313;-77
2021/04/26 08:49:22;;;;;;;0.60;0.60;;;;;;;6.25;42.85;101480.28;4977475;28;20196;-77
2021/04/26 08:51:48;;;;;;;0.80;0.50;;;;;;;6.24;41.78;101470.81;4979145;28;20205;-77
2021/04/26 08:54:15;;;;;;;0.83;0.53;;;;;;;6.45;42.68;101471.75;4979334;28;20239;-77
2021/04/26 08:56:42;;;;;;;2.27;0.77;;;;;;;6.48;43.80;101468.31;4983748;28;20289;-77
2021/04/26 08:59:09;;;;;;;1.13;0.80;;;;;;;6.71;47.24;101447.66;4978520;28;20280;-77
2021/04/26 09:01:35;;;;;;;0.60;0.60;;;;;;;7.15;46.66;101447.75;4980711;28;20292;-77
2021/04/26 09:04:05;;;;;;;2.07;1.03;;;;;;;7.33;44.28;101459.88;4984070;28;20221;-77
2021/04/26 09:06:50;;;;;;;1.77;1.53;;;;;;;7.43;47.30;101447.78;4981354;28;20232;-77
2021/04/26 09:09:32;;;;;;;2.20;0.80;;;;;;;7.45;43.38;101458.16;4978092;28;20263;-77
2021/04/26 09:11:58;;;;;;;3.67;0.90;;;;;;;7.16;43.33;101457.28;4977640;28;20197;-77
2021/04/26 09:14:39;;;;;;;2.80;0.90;;;;;;;6.91;44.43;101450.31;4979183;28;20283;-77
2021/04/26 09:17:25;;;;;;;2.20;0.90;;;;;;;6.73;44.46;101453.72;4971992;28;20214;-77
2021/04/26 09:19:51;;;;;;;1.07;0.87;;;;;;;6.52;46.56;101444.16;4976808;28;20197;-77
2021/04/26 09:22:37;;;;;;;0.70;0.70;;;;;;;6.38;43.43;101444.09;4974892;28;20208;-77
2021/04/26 09:25:18;;;;;;;0.60;0.60;;;;;;;6.56;43.11;101449.34;4978323;28;20281;-77
2021/04/26 09:27:51;;;;;;;0.70;0.60;;;;;;;6.91;43.85;101443.41;4973043;28;20232;-77
2021/04/26 09:30:34;;;;;;;1.70;0.87;;;;;;;7.03;43.79;101437.34;4976528;28;20236;-76
2021/04/26 09:33:18;;;;;;;0.90;0.90;;;;;;;7.28;43.73;101435.69;4971807;28;20235;-76
2021/04/26 09:35:44;;;;;;;1.83;0.90;;;;;;;7.60;45.85;101437.41;4982375;28;20756;-77
2021/04/26 09:38:23;;;;;;;1.83;0.80;;;;;;;7.64;40.87;101438.25;4975761;28;20241;-76
2021/04/26 09:41:08;;;;;;;1.10;0.87;;;;;;;7.73;39.59;101436.50;4974190;28;20523;-79
2021/04/26 09:43:34;;;;;;;0.70;0.70;;;;;;;7.87;40.34;101436.47;4982737;28;20287;-79
2021/04/26 09:46:01;;;;;;;0.80;0.73;;;;;;;8.07;41.66;101432.97;4970954;28;20224;-77
2021/04/26 09:48:27;;;;;;;1.17;0.87;;;;;;;8.07;44.22;101422.56;4976591;28;20209;-76
2021/04/26 09:50:55;;;;;;;0.90;0.77;;;;;;;8.23;41.50;101426.00;4982203;28;20212;-77
2021/04/26 09:53:21;;;;;;;2.67;0.90;;;;;;;8.38;41.22;101433.72;4979083;28;20209;-77
2021/04/26 09:55:47;;;;;;;0.80;0.80;;;;;;;8.36;40.03;101427.69;4975200;28;20740;-76
2021/04/26 09:58:13;;;;;;;1.90;1.03;;;;;;;7.92;41.21;101423.50;4978339;28;20212;-77
2021/04/26 10:00:43;;;;;;;0.83;0.70;;;;;;;7.53;39.73;101436.53;4972104;28;20205;-77
2021/04/26 10:03:10;;;;;;;1.33;0.90;;;;;;;7.00;40.24;101424.38;4977112;28;20225;-77
2021/04/26 10:05:36;;;;;;;0.90;0.80;;;;;;;7.03;41.16;101424.41;4971993;28;20272;-77
2021/04/26 10:08:02;;;;;;;3.40;1.10;;;;;;;7.49;41.09;101419.25;4971747;28;20264;-76
2021/04/26 10:10:28;;;;;;;3.37;0.97;;;;;;;7.81;40.98;101420.94;4971957;28;20209;-77
2021/04/26 10:12:54;;;;;;;0.67;0.67;;;;;;;7.81;39.01;101420.03;4976079;28;20642;-77
2021/04/26 10:15:26;;;;;;;1.43;0.83;;;;;;;7.89;39.80;101413.13;4992673;28;20205;-77
2021/04/26 10:17:54;;;;;;;1.37;0.80;;;;;;;8.07;40.02;101405.28;4970775;28;20205;-77
2021/04/26 10:20:34;;;;;;;0.90;0.90;;;;;;;8.40;40.32;101398.19;4982354;28;20704;-77
2021/04/26 10:23:00;;;;;;;2.60;0.90;;;;;;;8.61;42.60;101394.66;4973312;28;20225;-77
2021/04/26 10:25:39;;;;;;;1.00;0.80;;;;;;;8.63;41.79;101392.91;4976793;28;20232;-77
2021/04/26 10:28:28;;;;;;;1.47;0.80;;;;;;;8.69;41.50;101395.50;4975102;28;20289;-77
2021/04/26 10:31:08;;;;;;;1.10;1.00;;;;;;;8.72;37.72;101394.59;4976860;28;20197;-77
2021/04/26 10:34:06;;;;;;;0.80;0.80;;;;;;;8.61;36.98;101394.66;4974955;28;20213;-77
2021/04/26 10:36:45;;;;;;;2.43;0.87;;;;;;;8.07;36.96;101394.91;4978342;28;20204;-77
2021/04/26 10:39:12;;;;;;;1.33;0.87;;;;;;;7.81;37.05;101391.47;4975783;28;20202;-77
2021/04/26 10:42:09;;;;;;;1.50;0.97;;;;;;;7.81;37.38;101381.09;4978072;28;20188;-77
2021/04/26 10:44:52;;;;;;;2.00;0.80;;;;;;;8.04;36.30;101387.09;4975388;28;20240;-77
2021/04/26 10:47:36;;;;;;;1.83;0.90;;;;;;;8.21;36.05;101378.38;4977398;28;20672;-77
2021/04/26 10:50:31;;;;;;;0.80;0.70;;;;;;;8.36;38.12;101373.13;4978608;28;20209;-77
2021/04/26 10:53:00;;;;;;;2.00;0.80;;;;;;;8.50;37.18;101357.47;4974596;28;20229;-77
2021/04/26 10:55:47;;;;;;;0.83;0.83;;;;;;;8.93;39.88;101356.31;4976676;28;20212;-77
2021/04/26 10:58:34;;;;;;;1.00;0.67;;;;;;;8.95;37.01;101355.41;4976383;28;20198;-77
2021/04/26 11:01:01;;;;;;;1.50;0.90;;;;;;;8.98;37.79;101360.59;4979856;28;20665;-77
2021/04/26 11:03:35;;;;;;;2.10;1.00;;;;;;;8.68;36.13;101362.53;4977681;28;20230;-77
2021/04/26 11:06:15;;;;;;;0.80;0.80;;;;;;;8.38;38.49;101347.13;4976635;28;20804;-77
2021/04/26 11:08:46;;;;;;;0.90;0.80;;;;;;;8.52;40.53;101343.59;4969615;28;20244;-77
2021/04/26 11:11:15;;;;;;;1.80;0.70;;;;;;;8.71;40.07;101344.34;4977025;28;20201;-77
2021/04/26 11:13:47;;;;;;;1.80;0.93;;;;;;;8.90;39.72;101339.88;4976831;28;20307;-77
2021/04/26 11:16:15;;;;;;;1.40;0.80;;;;;;;9.25;39.94;101330.91;4983765;28;20249;-77
2021/04/26 11:18:43;;;;;;;1.43;0.90;;;;;;;9.23;36.39;101344.78;4975014;28;20709;-77
2021/04/26 11:21:10;;;;;;;1.33;0.90;;;;;;;9.45;34.74;101346.31;4982074;28;20194;-77
2021/04/26 11:23:46;;;;;;;3.40;0.80;;;;;;;9.48;34.10;101342.84;4976778;28;20668;-77
2021/04/26 11:26:16;;;;;;;0.80;0.63;;;;;;;9.44;33.44;101334.16;4979400;28;20229;-77
2021/04/26 11:29:03;;;;;;;1.00;0.60;;;;;;;9.51;33.40;101331.50;4974252;28;20270;-76
2021/04/26 11:32:05;;;;;;;0.90;0.80;;;;;;;9.62;33.22;101333.13;4969610;28;20217;-78
2021/04/26 11:35:05;;;;;;;0.80;0.80;;;;;;;9.96;35.44;101311.91;4981439;28;20217;-77
2021/04/26 11:37:35;;;;;;;2.47;0.87;;;;;;;9.81;32.87;101327.69;4976198;28;20204;-78
2021/04/26 11:40:16;;;;;;;3.30;0.80;;;;;;;9.64;32.06;101322.72;4980638;28;20935;-78
2021/04/26 11:42:42;;;;;;;0.93;0.83;;;;;;;9.90;32.70;101309.34;4976459;28;20270;-77
2021/04/26 11:45:10;;;;;;;1.37;0.77;;;;;;;10.24;33.04;101301.97;4981332;28;20612;-78